createdAt,value
2022-10-20T00:01:36.661Z,7.05
2022-10-20T00:04:05.597Z,8.32
2022-10-20T00:06:35.117Z,8.02
2022-10-20T00:09:06.140Z,7.43
2022-10-20T00:11:34.723Z,5.30
2022-10-20T00:14:05.925Z,10.18
2022-10-20T00:16:37.565Z,7.75
2022-10-20T00:19:07.375Z,5.80
2022-10-20T00:21:35.991Z,10.18
2022-10-20T00:24:05.782Z,6.95
2022-10-20T00:26:34.258Z,8.75
2022-10-20T00:29:05.569Z,7.35
2022-10-20T00:31:34.600Z,13.65
2022-10-20T00:34:03.149Z,7.88
2022-10-20T00:36:34.129Z,7.03
2022-10-20T00:39:05.775Z,12.30
2022-10-20T00:41:34.953Z,9.05
2022-10-20T00:44:21.474Z,14.27
2022-10-20T00:46:50.507Z,7.68
2022-10-20T00:49:23.147Z,8.93
2022-10-20T00:51:53.126Z,6.55
2022-10-20T00:54:25.733Z,7.00
2022-10-20T00:56:57.007Z,12.18
2022-10-20T00:59:29.512Z,8.35
2022-10-20T01:01:59.204Z,8.18
2022-10-20T01:04:31.954Z,7.78
2022-10-20T01:09:29.875Z,5.85
2022-10-20T01:12:04.709Z,8.85
2022-10-20T01:14:42.527Z,8.13
2022-10-20T01:17:24.457Z,7.15
2022-10-20T01:20:19.008Z,10.35
2022-10-20T01:23:03.755Z,5.68
2022-10-20T01:25:47.565Z,10.05
2022-10-20T01:28:24.340Z,9.68
2022-10-20T01:30:58.427Z,6.63
2022-10-20T01:33:39.013Z,4.63
2022-10-20T01:36:15.553Z,5.85
2022-10-20T01:38:49.938Z,7.60
2022-10-20T01:41:23.536Z,7.15
2022-10-20T01:43:55.152Z,6.38
2022-10-20T01:46:28.042Z,8.75
2022-10-20T01:48:57.965Z,6.78
2022-10-20T01:51:26.578Z,6.78
2022-10-20T01:53:55.890Z,7.15
2022-10-20T01:56:31.185Z,7.03
2022-10-20T01:59:34.024Z,6.43
2022-10-20T02:02:19.024Z,9.18
2022-10-20T02:05:01.319Z,7.95
2022-10-20T02:07:32.810Z,6.00
2022-10-20T02:10:08.028Z,5.55
2022-10-20T02:12:40.147Z,4.47
2022-10-20T02:15:16.576Z,5.40
2022-10-20T02:17:48.267Z,7.72
2022-10-20T02:20:18.254Z,10.93
2022-10-20T02:22:47.105Z,9.23
2022-10-20T02:25:16.013Z,7.25
2022-10-20T02:27:49.080Z,6.57
2022-10-20T02:30:19.714Z,6.93
2022-10-20T02:32:52.949Z,7.72
2022-10-20T02:35:24.483Z,7.60
2022-10-20T02:37:52.839Z,11.05
2022-10-20T02:40:22.434Z,5.10
2022-10-20T02:42:54.178Z,7.50
2022-10-20T02:45:23.943Z,6.32
2022-10-20T02:47:52.674Z,6.70
2022-10-20T02:50:21.183Z,8.00
2022-10-20T02:52:49.698Z,7.63
2022-10-20T02:57:54.041Z,7.43
2022-10-20T03:00:29.669Z,6.13
2022-10-20T03:02:58.308Z,7.22
2022-10-20T03:05:27.201Z,6.47
2022-10-20T03:07:55.732Z,10.38
2022-10-20T03:10:24.350Z,8.20
2022-10-20T03:12:53.465Z,8.27
2022-10-20T03:15:21.917Z,6.05
2022-10-20T03:17:51.835Z,8.63
2022-10-20T03:20:20.723Z,5.03
2022-10-20T03:22:49.699Z,7.57
2022-10-20T03:25:18.187Z,9.10
2022-10-20T03:27:46.628Z,7.95
2022-10-20T03:30:15.564Z,11.30
2022-10-20T03:32:44.245Z,11.75
2022-10-20T03:35:14.095Z,7.70
2022-10-20T03:37:43.003Z,6.82
2022-10-20T03:40:11.864Z,7.70
2022-10-20T03:42:40.471Z,6.85
2022-10-20T03:45:10.426Z,6.03
2022-10-20T03:47:40.862Z,7.75
2022-10-20T03:50:09.842Z,10.60
2022-10-20T03:52:39.966Z,9.43
2022-10-20T03:55:09.327Z,6.72
2022-10-20T03:57:38.362Z,5.35
2022-10-20T04:00:08.450Z,7.38
2022-10-20T04:02:45.965Z,7.22
2022-10-20T04:05:16.697Z,7.53
2022-10-20T04:07:47.095Z,6.10
2022-10-20T04:10:17.356Z,6.78
2022-10-20T04:12:46.450Z,9.23
2022-10-20T04:15:15.215Z,8.40
2022-10-20T04:17:43.636Z,9.00
2022-10-20T04:20:13.005Z,8.63
2022-10-20T04:22:42.262Z,9.68
2022-10-20T04:25:12.957Z,7.80
2022-10-20T04:27:42.341Z,9.80
2022-10-20T04:30:12.500Z,7.75
2022-10-20T04:32:41.270Z,6.70
2022-10-20T04:35:10.591Z,8.00
2022-10-20T04:37:39.860Z,6.47
2022-10-20T04:40:10.329Z,8.15
2022-10-20T04:42:40.610Z,6.43
2022-10-20T04:45:10.089Z,7.22
2022-10-20T04:47:39.093Z,7.78
2022-10-20T04:50:11.711Z,6.70
2022-10-20T04:52:48.306Z,9.48
2022-10-20T04:55:21.567Z,7.93
2022-10-20T04:57:52.134Z,6.65
2022-10-20T05:00:21.589Z,8.15
2022-10-20T05:02:58.493Z,12.32
2022-10-20T05:05:30.317Z,13.77
2022-10-20T05:08:00.446Z,12.88
2022-10-20T05:10:34.449Z,10.77
2022-10-20T05:13:09.200Z,9.23
2022-10-20T05:15:40.005Z,9.40
2022-10-20T05:18:08.579Z,10.10
2022-10-20T05:21:07.977Z,8.20
2022-10-20T05:23:38.947Z,8.77
2022-10-20T05:26:09.524Z,9.23
2022-10-20T05:28:44.126Z,8.00
2022-10-20T05:31:14.948Z,12.57
2022-10-20T05:33:46.543Z,13.07
2022-10-20T05:36:21.567Z,16.98
2022-10-20T05:38:52.392Z,11.07
2022-10-20T05:41:23.449Z,11.23
2022-10-20T05:43:57.347Z,13.00
2022-10-20T05:46:27.470Z,13.52
2022-10-20T05:49:01.450Z,18.75
2022-10-20T05:51:32.310Z,22.25
2022-10-20T05:54:03.695Z,17.20
2022-10-20T05:56:34.441Z,16.00
2022-10-20T06:01:48.786Z,13.15
2022-10-20T06:04:22.082Z,16.27
2022-10-20T06:06:54.457Z,18.08
2022-10-20T06:09:24.566Z,11.05
2022-10-20T06:11:57.104Z,10.27
2022-10-20T06:14:29.195Z,10.30
2022-10-20T06:16:58.442Z,9.07
2022-10-20T06:19:28.112Z,9.20
2022-10-20T06:22:06.827Z,11.93
2022-10-20T06:24:37.074Z,9.77
2022-10-20T06:27:05.729Z,9.32
2022-10-20T06:29:38.550Z,14.18
2022-10-20T06:34:46.244Z,9.10
2022-10-20T06:37:15.883Z,8.40
2022-10-20T06:39:47.360Z,8.80
2022-10-20T06:42:19.465Z,10.10
2022-10-20T06:44:50.284Z,8.52
2022-10-20T06:47:19.076Z,8.13
2022-10-20T06:49:51.647Z,10.57
2022-10-20T06:52:20.543Z,11.60
2022-10-20T06:54:51.377Z,9.88
2022-10-20T06:57:22.543Z,10.18
2022-10-20T07:00:02.640Z,9.85
2022-10-20T07:02:34.220Z,13.75
2022-10-20T07:05:03.558Z,13.57
2022-10-20T07:07:32.511Z,13.70
2022-10-20T07:10:06.348Z,15.60
2022-10-20T07:12:35.424Z,15.50
2022-10-20T07:15:08.970Z,12.95
2022-10-20T07:17:38.186Z,12.23
2022-10-20T07:20:15.510Z,16.08
2022-10-20T07:22:50.502Z,11.80
2022-10-20T07:25:22.643Z,13.35
2022-10-20T07:27:52.200Z,14.50
2022-10-20T07:30:22.560Z,12.82
2022-10-20T07:32:51.565Z,12.30
2022-10-20T07:35:20.414Z,11.25
2022-10-20T07:37:49.276Z,15.25
2022-10-20T07:40:18.545Z,12.88
2022-10-20T07:42:49.359Z,13.35
2022-10-20T07:45:18.254Z,14.18
2022-10-20T07:47:50.378Z,13.80
2022-10-20T07:50:19.671Z,15.48
2022-10-20T07:52:53.372Z,16.45
2022-10-20T07:55:37.998Z,13.07
2022-10-20T07:58:07.367Z,14.05
2022-10-20T08:00:36.310Z,15.60
2022-10-20T08:03:07.249Z,14.05
2022-10-20T08:05:36.582Z,13.73
2022-10-20T08:08:05.966Z,14.10
2022-10-20T08:10:35.351Z,14.75
2022-10-20T08:13:07.219Z,13.80
2022-10-20T08:18:09.024Z,13.97
2022-10-20T08:20:41.219Z,13.25
2022-10-20T08:23:10.158Z,16.40
2022-10-20T08:25:39.031Z,10.80
2022-10-20T08:28:11.360Z,14.82
2022-10-20T08:30:47.014Z,13.13
2022-10-20T08:33:17.174Z,14.82
2022-10-20T08:35:46.360Z,11.25
2022-10-20T08:38:19.666Z,11.45
2022-10-20T08:40:48.385Z,13.00
2022-10-20T08:43:21.588Z,13.27
2022-10-20T08:45:55.376Z,13.73
2022-10-20T08:48:46.606Z,12.50
2022-10-20T08:51:22.189Z,11.05
2022-10-20T08:53:56.989Z,12.52
2022-10-20T08:56:31.621Z,14.40
2022-10-20T08:59:01.279Z,21.65
2022-10-20T09:01:34.615Z,21.35
2022-10-20T09:04:17.619Z,20.80
2022-10-20T09:06:52.377Z,16.67
2022-10-20T09:09:24.223Z,18.25
2022-10-20T09:11:57.200Z,15.95
2022-10-20T09:14:26.514Z,15.43
2022-10-20T09:17:00.806Z,13.80
2022-10-20T09:19:32.339Z,11.00
2022-10-20T09:22:08.744Z,11.65
2022-10-20T09:24:38.307Z,14.10
2022-10-20T09:27:23.666Z,13.90
2022-10-20T09:29:52.865Z,14.15
2022-10-20T09:32:46.979Z,12.00
2022-10-20T09:35:30.783Z,15.60
2022-10-20T09:38:05.187Z,13.23
2022-10-20T09:40:35.808Z,15.68
2022-10-20T09:43:12.755Z,13.63
2022-10-20T09:45:53.446Z,10.75
2022-10-20T09:48:27.273Z,12.20
2022-10-20T09:50:59.289Z,12.38
2022-10-20T09:55:59.061Z,9.23
2022-10-20T09:58:31.417Z,10.00
2022-10-20T10:01:03.591Z,10.27
2022-10-20T10:03:41.071Z,10.48
2022-10-20T10:06:35.886Z,12.20
2022-10-20T10:09:34.658Z,8.80
2022-10-20T10:12:06.410Z,7.88
2022-10-20T10:14:38.033Z,7.13
2022-10-20T10:17:07.036Z,6.57
2022-10-20T10:19:36.884Z,7.90
2022-10-20T10:22:08.318Z,7.40
2022-10-20T10:24:44.121Z,7.68
2022-10-20T10:27:26.521Z,7.18
2022-10-20T10:29:57.395Z,8.30
2022-10-20T10:32:28.097Z,9.15
2022-10-20T10:35:20.071Z,6.25
2022-10-20T10:37:50.467Z,7.05
2022-10-20T10:40:26.315Z,10.82
2022-10-20T10:43:16.112Z,8.48
2022-10-20T10:45:53.146Z,6.68
2022-10-20T10:48:45.975Z,7.50
2022-10-20T10:51:29.442Z,8.32
2022-10-20T10:54:23.379Z,7.65
2022-10-20T10:56:58.045Z,9.20
2022-10-20T10:59:37.603Z,6.88
2022-10-20T11:02:40.288Z,4.82
2022-10-20T11:05:50.306Z,6.53
2022-10-20T11:08:35.321Z,4.82
2022-10-20T11:11:19.585Z,5.75
2022-10-20T11:14:00.004Z,4.93
2022-10-20T11:16:37.579Z,5.75
2022-10-20T11:19:54.350Z,4.40
2022-10-20T11:22:36.330Z,3.38
2022-10-20T11:25:29.292Z,3.38
2022-10-20T11:27:59.982Z,4.05
2022-10-20T11:30:31.779Z,4.22
2022-10-20T11:33:05.551Z,11.25
2022-10-20T11:35:44.448Z,4.55
2022-10-20T11:38:19.580Z,4.28
2022-10-20T11:40:57.919Z,4.43
2022-10-20T11:43:38.463Z,3.83
2022-10-20T11:46:14.074Z,3.63
2022-10-20T11:48:48.252Z,5.30
2022-10-20T11:51:41.103Z,5.93
2022-10-20T11:54:29.554Z,2.85
2022-10-20T11:57:12.878Z,3.78
2022-10-20T12:00:05.089Z,2.30
2022-10-20T12:03:03.882Z,2.60
2022-10-20T12:06:00.447Z,5.97
2022-10-20T12:08:59.030Z,3.65
2022-10-20T12:11:32.357Z,4.32
2022-10-20T12:14:13.416Z,3.33
2022-10-20T12:17:18.442Z,4.10
2022-10-20T12:19:53.835Z,5.05
2022-10-20T12:22:43.356Z,4.55
2022-10-20T12:25:38.643Z,5.38
2022-10-20T12:28:34.175Z,6.35
2022-10-20T12:31:05.296Z,4.78
2022-10-20T12:33:40.810Z,3.10
2022-10-20T12:36:33.397Z,4.50
2022-10-20T12:39:20.868Z,6.35
2022-10-20T12:42:05.329Z,5.00
2022-10-20T12:44:47.268Z,4.35
2022-10-20T12:47:23.734Z,4.95
2022-10-20T12:50:02.467Z,4.93
2022-10-20T12:52:37.451Z,6.40
2022-10-20T12:55:10.429Z,5.18
2022-10-20T12:57:46.531Z,6.65
2022-10-20T13:00:57.118Z,6.32
2022-10-20T13:03:43.274Z,4.15
2022-10-20T13:06:52.765Z,5.88
2022-10-20T13:09:26.456Z,6.00
2022-10-20T13:12:06.531Z,4.15
2022-10-20T13:14:50.017Z,5.32
2022-10-20T13:17:29.060Z,5.43
2022-10-20T13:20:03.672Z,8.32
2022-10-20T13:22:47.160Z,11.02
2022-10-20T13:25:40.082Z,13.50
2022-10-20T13:28:20.583Z,11.75
2022-10-20T13:31:18.101Z,11.50
2022-10-20T13:34:06.011Z,10.68
2022-10-20T13:37:12.036Z,8.30
2022-10-20T13:39:54.490Z,7.13
2022-10-20T13:42:44.448Z,7.68
2022-10-20T13:45:28.035Z,3.90
2022-10-20T13:48:11.079Z,3.45
2022-10-20T13:50:45.891Z,3.63
2022-10-20T13:53:23.990Z,2.70
2022-10-20T13:56:13.875Z,4.00
2022-10-20T13:59:03.174Z,3.03
2022-10-20T14:01:36.977Z,2.25
2022-10-20T14:04:25.478Z,1.85
2022-10-20T14:07:06.613Z,2.45
2022-10-20T14:09:46.588Z,2.30
2022-10-20T14:12:24.682Z,2.42
2022-10-20T14:15:07.045Z,5.53
2022-10-20T14:17:40.740Z,2.65
2022-10-20T14:20:21.033Z,4.72
2022-10-20T14:22:51.032Z,4.82
2022-10-20T14:25:23.058Z,3.78
2022-10-20T14:27:58.091Z,6.13
2022-10-20T14:30:28.596Z,15.10
2022-10-20T14:33:00.195Z,13.52
2022-10-20T14:35:34.058Z,10.38
2022-10-20T14:38:08.860Z,10.57
2022-10-20T14:40:39.529Z,11.27
2022-10-20T14:43:15.995Z,6.40
2022-10-20T14:45:55.576Z,6.13
2022-10-20T14:48:30.243Z,5.30
2022-10-20T14:50:58.986Z,4.13
2022-10-20T14:53:34.899Z,3.95
2022-10-20T14:56:07.116Z,3.13
2022-10-20T14:58:40.464Z,2.70
2022-10-20T15:01:20.836Z,5.20
2022-10-20T15:04:25.466Z,9.30
2022-10-20T15:07:07.062Z,4.40
2022-10-20T15:09:46.833Z,6.50
2022-10-20T15:12:18.675Z,9.32
2022-10-20T15:14:51.034Z,20.75
2022-10-20T15:17:42.519Z,19.25
2022-10-20T15:20:43.508Z,10.82
2022-10-20T15:23:14.994Z,12.75
2022-10-20T15:25:54.286Z,15.20
2022-10-20T15:28:31.646Z,17.13
2022-10-20T15:31:02.091Z,20.80
2022-10-20T15:33:33.461Z,16.85
2022-10-20T15:36:04.437Z,17.83
2022-10-20T15:38:34.569Z,18.33
2022-10-20T15:41:20.514Z,20.65
2022-10-20T15:43:49.352Z,24.00
2022-10-20T15:46:21.071Z,39.35
2022-10-20T15:48:53.929Z,41.53
2022-10-20T15:51:26.885Z,47.40
2022-10-20T15:53:56.333Z,46.85
2022-10-20T15:56:28.359Z,57.65
2022-10-20T15:58:56.882Z,59.60
2022-10-20T16:01:25.982Z,56.38
2022-10-20T16:03:56.963Z,45.88
2022-10-20T16:06:28.234Z,50.20
2022-10-20T16:08:58.801Z,41.60
2022-10-20T16:11:35.197Z,30.38
2022-10-20T16:14:04.122Z,29.10
2022-10-20T16:16:32.646Z,35.95
2022-10-20T16:19:02.995Z,37.00
2022-10-20T16:21:34.453Z,35.03
2022-10-20T16:24:05.856Z,37.30
2022-10-20T16:29:03.760Z,29.73
2022-10-20T16:31:32.963Z,28.77
2022-10-20T16:34:03.035Z,26.23
2022-10-20T16:36:33.468Z,21.25
2022-10-20T16:39:02.445Z,23.90
2022-10-20T16:41:31.945Z,26.05
2022-10-20T16:44:01.353Z,59.25
2022-10-20T16:46:30.251Z,135.60
2022-10-20T16:48:59.032Z,180.05
2022-10-20T16:51:29.402Z,177.25
2022-10-20T16:54:02.902Z,109.07
2022-10-20T16:56:31.913Z,61.47
2022-10-20T16:59:01.999Z,106.22
2022-10-20T17:01:34.740Z,95.78
2022-10-20T17:04:03.488Z,42.70
2022-10-20T17:06:35.901Z,38.80
2022-10-20T17:09:05.154Z,46.05
2022-10-20T17:11:35.034Z,59.42
2022-10-20T17:14:06.555Z,141.65
2022-10-20T17:16:40.440Z,123.50
2022-10-20T17:19:09.438Z,67.35
2022-10-20T17:21:39.362Z,51.60
2022-10-20T17:24:12.492Z,37.03
2022-10-20T17:26:42.254Z,28.20
2022-10-20T17:29:11.822Z,24.83
2022-10-20T17:31:40.393Z,18.05
2022-10-20T17:34:12.558Z,17.33
2022-10-20T17:36:43.871Z,14.07
2022-10-20T17:39:18.066Z,18.15
2022-10-20T17:41:48.161Z,18.67
2022-10-20T17:44:16.940Z,22.88
2022-10-20T17:46:48.092Z,26.20
2022-10-20T17:49:20.547Z,26.58
2022-10-20T17:51:50.718Z,24.02
2022-10-20T17:54:20.507Z,22.00
2022-10-20T17:56:52.538Z,25.10
2022-10-20T17:59:21.328Z,21.17
2022-10-20T18:01:52.645Z,24.23
2022-10-20T18:04:21.824Z,25.02
2022-10-20T18:06:51.860Z,22.63
2022-10-20T18:09:21.042Z,29.10
2022-10-20T18:11:52.002Z,32.65
2022-10-20T18:14:21.392Z,44.73
2022-10-20T18:16:50.892Z,40.13
2022-10-20T18:19:20.615Z,33.78
2022-10-20T18:21:49.368Z,31.38
2022-10-20T18:24:21.554Z,28.70
2022-10-20T18:26:53.026Z,27.90
2022-10-20T18:29:22.823Z,33.28
2022-10-20T18:31:51.928Z,45.97
2022-10-20T18:34:23.507Z,44.70
2022-10-20T18:36:55.371Z,44.80
2022-10-20T18:41:54.774Z,66.95
2022-10-20T18:44:24.110Z,57.75
2022-10-20T18:46:57.825Z,74.47
2022-10-20T18:49:26.489Z,307.35
2022-10-20T18:51:55.296Z,302.45
2022-10-20T18:54:28.350Z,364.92
2022-10-20T18:56:57.020Z,378.58
2022-10-20T18:59:25.546Z,453.08
2022-10-20T19:01:54.513Z,468.05
2022-10-20T19:04:22.992Z,382.63
2022-10-20T19:06:53.076Z,222.43
2022-10-20T19:09:23.133Z,124.72
2022-10-20T19:11:56.003Z,77.40
2022-10-20T19:14:24.442Z,56.80
2022-10-20T19:16:55.944Z,35.55
2022-10-20T19:19:24.564Z,44.75
2022-10-20T19:21:53.458Z,79.00
2022-10-20T19:24:24.961Z,69.32
2022-10-20T19:27:27.209Z,83.30
2022-10-20T19:29:47.716Z,59.97
2022-10-20T19:32:16.825Z,58.90
2022-10-20T19:34:45.499Z,59.25
2022-10-20T19:37:14.015Z,44.42
2022-10-20T19:39:47.043Z,38.00
2022-10-20T19:42:16.858Z,39.85
2022-10-20T19:44:46.648Z,43.80
2022-10-20T19:47:18.456Z,32.97
2022-10-20T19:49:47.730Z,33.53
2022-10-20T19:52:16.407Z,29.33
2022-10-20T19:54:45.177Z,26.67
2022-10-20T19:57:13.851Z,28.90
2022-10-20T19:59:44.152Z,27.85
2022-10-20T20:02:13.630Z,28.83
2022-10-20T20:04:42.896Z,42.20
2022-10-20T20:07:11.530Z,43.85
2022-10-20T20:09:40.018Z,78.07
2022-10-20T20:12:08.986Z,92.93
2022-10-20T20:14:39.487Z,48.47
2022-10-20T20:17:11.224Z,42.45
2022-10-20T20:19:40.200Z,28.67
2022-10-20T20:22:08.753Z,29.15
2022-10-20T20:24:39.085Z,31.35
2022-10-20T20:27:07.373Z,87.72
2022-10-20T20:29:36.024Z,153.48
2022-10-20T20:32:04.714Z,123.35
2022-10-20T20:34:35.087Z,72.45
2022-10-20T20:37:04.253Z,50.30
2022-10-20T20:39:32.756Z,40.45
2022-10-20T20:42:01.428Z,67.03
2022-10-20T20:44:32.471Z,123.63
2022-10-20T20:47:01.470Z,445.63
2022-10-20T20:49:35.204Z,262.40
2022-10-20T20:52:04.322Z,167.65
2022-10-20T20:54:33.212Z,130.00
2022-10-20T20:57:02.039Z,61.40
2022-10-20T20:59:31.188Z,101.82
2022-10-20T21:02:01.077Z,70.25
2022-10-20T21:04:30.718Z,153.10
2022-10-20T21:07:02.391Z,149.80
2022-10-20T21:09:32.051Z,80.68
2022-10-20T21:12:00.761Z,55.22
2022-10-20T21:14:32.471Z,64.97
2022-10-20T21:17:01.465Z,84.55
2022-10-20T21:19:30.749Z,57.40
2022-10-20T21:22:01.509Z,45.85
2022-10-20T21:24:30.588Z,40.50
2022-10-20T21:26:59.421Z,38.15
2022-10-20T21:29:28.358Z,26.83
2022-10-20T21:31:58.308Z,20.13
2022-10-20T21:34:27.710Z,17.40
2022-10-20T21:36:56.150Z,18.52
2022-10-20T21:39:27.214Z,17.08
2022-10-20T21:41:55.733Z,15.23
2022-10-20T21:44:24.414Z,16.20
2022-10-20T21:46:53.611Z,15.40
2022-10-20T21:49:26.230Z,17.00
2022-10-20T21:51:57.031Z,15.23
2022-10-20T21:54:28.848Z,19.60
2022-10-20T21:56:58.235Z,13.65
2022-10-20T21:59:28.600Z,14.25
2022-10-20T22:01:59.545Z,13.98
2022-10-20T22:04:30.396Z,16.07
2022-10-20T22:06:59.841Z,13.57
2022-10-20T22:09:30.079Z,16.98
2022-10-20T22:12:00.036Z,14.38
2022-10-20T22:14:30.747Z,14.13
2022-10-20T22:17:00.097Z,19.45
2022-10-20T22:19:29.023Z,17.02
2022-10-20T22:24:35.993Z,16.15
2022-10-20T22:27:15.415Z,15.55
2022-10-20T22:29:57.273Z,11.90
2022-10-20T22:32:26.633Z,14.02
2022-10-20T22:34:55.217Z,18.52
2022-10-20T22:37:26.660Z,17.02
2022-10-20T22:40:00.291Z,15.05
2022-10-20T22:42:29.282Z,17.48
2022-10-20T22:44:58.073Z,16.35
2022-10-20T22:47:26.811Z,17.55
2022-10-20T22:49:55.831Z,13.10
2022-10-20T22:52:24.471Z,13.30
2022-10-20T22:54:53.351Z,12.52
2022-10-20T22:57:26.245Z,14.05
2022-10-20T22:59:55.091Z,12.43
2022-10-20T23:02:29.989Z,11.88
2022-10-20T23:04:58.541Z,12.65
2022-10-20T23:07:27.189Z,11.60
2022-10-20T23:09:56.174Z,10.10
2022-10-20T23:12:26.597Z,14.70
2022-10-20T23:14:56.068Z,15.30
2022-10-20T23:17:25.086Z,15.38
2022-10-20T23:19:54.319Z,10.35
2022-10-20T23:22:23.818Z,16.92
2022-10-20T23:24:52.805Z,11.85
2022-10-20T23:27:21.281Z,12.35
2022-10-20T23:29:51.341Z,13.82
2022-10-20T23:32:20.065Z,12.13
2022-10-20T23:34:48.692Z,13.90
2022-10-20T23:37:19.972Z,13.55
2022-10-20T23:39:48.329Z,12.77
2022-10-20T23:42:17.201Z,13.93
2022-10-20T23:44:45.556Z,15.80
2022-10-20T23:47:15.556Z,13.93
2022-10-20T23:49:44.178Z,15.65
2022-10-20T23:52:12.735Z,13.13
2022-10-20T23:54:41.308Z,14.98
2022-10-20T23:57:10.244Z,15.18
2022-10-20T23:59:38.735Z,13.55
